Time;durP1;ratioP1;P1;durP2;ratioP2;P2;SDS_P1;SDS_P2;PMS_P1;PMS_P2;Temp;Humidity;BMP_temperature;BMP_pressure;BME280_temperature;BME280_humidity;BME280_pressure;Samples;Min_cycle;Max_cycle;Signal;HPM_P1;HPM_P2
2022/03/02 00:01:30;;;;;;;27.05;9.25;;;6.40;99.90;;;;;;5002372;28;20034;-60
2022/03/02 00:03:56;;;;;;;22.23;10.50;;;6.40;99.90;;;;;;5001575;28;20068;-60
2022/03/02 00:06:21;;;;;;;29.23;11.65;;;6.30;99.90;;;;;;4998773;28;20045;-62
2022/03/02 00:08:47;;;;;;;22.63;9.63;;;6.30;99.90;;;;;;5000735;28;20105;-60
2022/03/02 00:11:12;;;;;;;23.50;10.82;;;6.30;99.90;;;;;;4997926;28;20046;-60
2022/03/02 00:13:39;;;;;;;20.10;9.95;;;6.30;99.90;;;;;;5001071;28;20038;-60
2022/03/02 00:16:05;;;;;;;27.25;10.77;;;6.30;99.90;;;;;;4999639;28;20029;-60
2022/03/02 00:18:31;;;;;;;24.88;10.55;;;6.20;99.90;;;;;;5000198;28;20034;-60
2022/03/02 00:20:57;;;;;;;24.92;11.15;;;6.10;99.90;;;;;;4999645;28;20056;-59
2022/03/02 00:23:22;;;;;;;26.85;10.25;;;6.10;99.90;;;;;;4998722;28;20045;-61
2022/03/02 00:25:48;;;;;;;25.60;10.98;;;6.10;99.90;;;;;;5000641;28;20044;-60
2022/03/02 00:28:14;;;;;;;25.88;10.57;;;6.00;99.90;;;;;;4998051;28;20385;-59
2022/03/02 00:30:40;;;;;;;31.77;10.90;;;6.00;99.90;;;;;;4998995;28;20050;-62
2022/03/02 00:33:06;;;;;;;25.08;10.45;;;5.90;99.90;;;;;;5000571;28;20216;-61
2022/03/02 00:35:32;;;;;;;22.60;9.80;;;5.90;99.90;;;;;;5000478;28;20041;-61
2022/03/02 00:37:57;;;;;;;27.58;10.73;;;5.90;99.90;;;;;;4999065;28;20089;-61
2022/03/02 00:40:23;;;;;;;25.85;10.55;;;5.90;99.90;;;;;;5000779;28;20523;-61
2022/03/02 00:42:49;;;;;;;21.48;10.05;;;5.90;99.90;;;;;;4998067;28;20119;-61
2022/03/02 00:45:14;;;;;;;22.75;10.32;;;5.90;99.90;;;;;;4997714;28;20038;-64
2022/03/02 00:47:40;;;;;;;24.70;10.90;;;5.90;99.90;;;;;;5000303;28;20522;-61
2022/03/02 00:50:07;;;;;;;25.20;10.90;;;5.90;99.90;;;;;;5010256;28;20049;-61
2022/03/02 00:52:34;;;;;;;25.92;11.00;;;5.90;99.90;;;;;;5006937;28;20034;-61
2022/03/02 00:54:59;;;;;;;24.60;10.80;;;6.00;99.90;;;;;;5006183;28;20036;-63
2022/03/02 00:57:25;;;;;;;20.95;9.23;;;5.90;99.90;;;;;;5000610;28;20516;-61
2022/03/02 00:59:50;;;;;;;21.38;8.95;;;6.00;99.90;;;;;;5000789;28;20541;-61
2022/03/02 01:02:16;;;;;;;25.75;10.93;;;5.90;99.90;;;;;;4998101;28;20562;-61
2022/03/02 01:04:42;;;;;;;23.15;10.18;;;6.00;99.90;;;;;;5001520;28;20053;-62
2022/03/02 01:07:07;;;;;;;19.17;9.30;;;6.00;99.90;;;;;;4998079;28;20037;-61
2022/03/02 01:09:34;;;;;;;21.55;9.85;;;6.00;99.90;;;;;;5000891;28;20497;-61
2022/03/02 01:11:59;;;;;;;24.98;10.95;;;6.00;99.90;;;;;;4998590;28;20030;-61
2022/03/02 01:14:25;;;;;;;24.67;9.90;;;6.00;99.90;;;;;;5000618;28;20037;-62
2022/03/02 01:16:51;;;;;;;20.58;9.65;;;5.90;99.90;;;;;;4998530;28;20052;-62
2022/03/02 01:19:17;;;;;;;25.15;11.02;;;5.90;99.90;;;;;;4998055;28;20117;-63
2022/03/02 01:21:42;;;;;;;26.75;10.98;;;5.80;99.90;;;;;;4999542;28;20029;-61
2022/03/02 01:24:08;;;;;;;22.92;10.48;;;5.70;99.90;;;;;;4998364;28;20157;-62
2022/03/02 01:26:36;;;;;;;23.80;9.85;;;5.70;99.90;;;;;;4998453;28;20027;-61
2022/03/02 01:29:03;;;;;;;24.15;10.02;;;5.70;99.90;;;;;;4999339;28;20124;-61
2022/03/02 01:31:28;;;;;;;24.45;10.95;;;5.60;99.90;;;;;;4993613;28;20142;-61
2022/03/02 01:33:54;;;;;;;22.80;9.57;;;5.60;99.90;;;;;;4999910;28;20490;-60
2022/03/02 01:36:21;;;;;;;31.15;11.57;;;5.60;99.90;;;;;;4998022;28;20037;-61
2022/03/02 01:38:47;;;;;;;24.45;10.55;;;5.60;99.90;;;;;;5000999;28;20030;-64
2022/03/02 01:41:14;;;;;;;26.73;10.60;;;5.60;99.90;;;;;;4993474;28;20050;-61
2022/03/02 01:43:40;;;;;;;25.90;10.60;;;5.60;99.90;;;;;;5000694;28;20054;-61
2022/03/02 01:46:06;;;;;;;27.52;11.10;;;5.60;99.90;;;;;;4999883;28;20058;-62
2022/03/02 01:48:32;;;;;;;34.05;11.25;;;5.60;99.90;;;;;;5000952;28;20132;-61
2022/03/02 01:50:58;;;;;;;27.52;11.43;;;5.60;99.90;;;;;;4998834;28;20034;-61
2022/03/02 01:53:23;;;;;;;23.08;11.30;;;5.60;99.90;;;;;;4997131;28;20109;-61
2022/03/02 01:55:49;;;;;;;24.90;11.40;;;5.60;99.90;;;;;;5000439;28;20042;-63
2022/03/02 01:58:14;;;;;;;24.02;11.13;;;5.50;99.90;;;;;;4996275;28;20036;-61
2022/03/02 02:00:40;;;;;;;25.95;11.07;;;5.50;99.90;;;;;;5000760;28;20426;-61
2022/03/02 02:03:06;;;;;;;23.05;11.13;;;5.50;99.90;;;;;;4997956;28;20197;-64
2022/03/02 02:05:32;;;;;;;24.30;10.57;;;5.50;99.90;;;;;;4999432;28;20478;-63
2022/03/02 02:07:57;;;;;;;24.80;10.40;;;5.60;99.90;;;;;;4997768;28;20042;-60
2022/03/02 02:10:23;;;;;;;27.58;10.25;;;5.60;99.90;;;;;;4998422;28;20050;-63
2022/03/02 02:12:48;;;;;;;27.52;11.73;;;5.60;99.90;;;;;;4999300;28;20040;-61
2022/03/02 02:15:14;;;;;;;25.95;10.75;;;5.50;99.90;;;;;;4997572;28;20034;-62
2022/03/02 02:17:41;;;;;;;24.27;10.48;;;5.60;99.90;;;;;;5000862;28;20042;-61
2022/03/02 02:20:08;;;;;;;28.23;12.00;;;5.60;99.90;;;;;;4998861;28;20038;-61
2022/03/02 02:22:43;;;;;;;29.45;13.15;;;5.60;99.90;;;;;;5003489;28;20049;-61
2022/03/02 02:25:09;;;;;;;25.08;10.15;;;5.60;99.90;;;;;;5000851;28;20374;-62
2022/03/02 02:27:36;;;;;;;23.60;10.68;;;5.60;99.90;;;;;;5002417;28;20045;-62
2022/03/02 02:30:03;;;;;;;23.67;10.05;;;5.50;99.90;;;;;;5001265;28;20064;-61
2022/03/02 02:32:30;;;;;;;27.10;11.95;;;5.50;99.90;;;;;;5001244;28;20085;-60
2022/03/02 02:34:57;;;;;;;23.50;11.18;;;5.60;99.90;;;;;;5003611;28;20442;-61
2022/03/02 02:37:24;;;;;;;26.67;11.30;;;5.60;99.90;;;;;;5004204;28;20093;-62
2022/03/02 02:39:58;;;;;;;26.27;10.88;;;5.70;99.90;;;;;;5002951;28;20452;-61
2022/03/02 02:42:24;;;;;;;20.23;9.65;;;5.60;99.90;;;;;;5006031;28;20561;-62
2022/03/02 02:44:50;;;;;;;28.63;11.48;;;5.60;99.90;;;;;;5002829;28;20111;-61
2022/03/02 02:47:15;;;;;;;24.73;11.45;;;5.60;99.90;;;;;;5000424;28;20100;-60
2022/03/02 02:49:41;;;;;;;26.95;11.90;;;5.60;99.90;;;;;;5004023;28;20036;-61
2022/03/02 02:52:07;;;;;;;23.90;10.30;;;5.60;99.90;;;;;;5000097;28;20046;-61
2022/03/02 02:54:32;;;;;;;30.05;11.63;;;5.70;99.90;;;;;;5003019;28;20044;-61
2022/03/02 02:56:58;;;;;;;29.10;11.10;;;5.70;99.90;;;;;;5001491;28;20030;-63
2022/03/02 02:59:24;;;;;;;25.17;10.90;;;5.70;99.90;;;;;;5001790;28;20601;-62
2022/03/02 03:01:50;;;;;;;23.25;9.50;;;5.70;99.90;;;;;;5000763;28;20034;-61
2022/03/02 03:04:16;;;;;;;25.05;10.65;;;5.80;99.90;;;;;;5000675;28;20054;-61
2022/03/02 03:06:42;;;;;;;22.50;10.30;;;5.80;99.90;;;;;;5003431;28;20121;-63
2022/03/02 03:09:08;;;;;;;29.27;10.93;;;5.80;99.90;;;;;;5002947;28;20124;-62
2022/03/02 03:11:37;;;;;;;23.42;11.00;;;5.80;99.90;;;;;;5000711;28;20057;-61
2022/03/02 03:14:10;;;;;;;27.80;10.95;;;5.80;99.90;;;;;;5002304;28;20069;-60
2022/03/02 03:16:36;;;;;;;26.85;11.43;;;5.90;99.90;;;;;;4999990;28;20113;-62
2022/03/02 03:19:02;;;;;;;24.73;10.32;;;5.90;99.90;;;;;;5002362;28;20117;-61
2022/03/02 03:21:28;;;;;;;23.00;9.93;;;5.90;99.90;;;;;;5001040;28;20054;-62
2022/03/02 03:23:53;;;;;;;24.73;10.52;;;5.80;99.90;;;;;;5001129;28;20037;-62
2022/03/02 03:26:19;;;;;;;23.52;11.05;;;5.90;99.90;;;;;;5002115;28;20038;-61
2022/03/02 03:28:44;;;;;;;25.98;11.10;;;5.90;99.90;;;;;;5000439;28;20039;-62
2022/03/02 03:31:10;;;;;;;21.50;10.55;;;5.80;99.90;;;;;;5000161;28;20065;-61
2022/03/02 03:33:36;;;;;;;25.20;11.00;;;5.80;99.90;;;;;;4999141;28;20030;-63
2022/03/02 03:36:02;;;;;;;25.20;10.18;;;5.80;99.90;;;;;;5000053;28;20058;-63
2022/03/02 03:38:28;;;;;;;23.05;10.18;;;5.80;99.90;;;;;;5000648;28;20049;-61
2022/03/02 03:40:53;;;;;;;24.67;11.35;;;5.80;99.90;;;;;;4998616;28;20413;-63
2022/03/02 03:43:19;;;;;;;24.38;10.02;;;5.90;99.90;;;;;;5003744;28;20486;-60
2022/03/02 03:45:45;;;;;;;25.90;10.90;;;5.80;99.90;;;;;;5000189;28;20091;-61
2022/03/02 03:48:11;;;;;;;26.67;10.45;;;5.80;99.90;;;;;;5002411;28;20676;-62
2022/03/02 03:50:37;;;;;;;27.08;11.05;;;5.80;99.90;;;;;;4999379;28;20091;-62
2022/03/02 03:53:02;;;;;;;24.67;10.48;;;5.80;99.90;;;;;;5002192;28;20041;-62
2022/03/02 03:55:28;;;;;;;26.80;11.35;;;5.80;99.90;;;;;;5000021;28;20486;-60
2022/03/02 03:57:54;;;;;;;24.40;10.27;;;5.70;99.90;;;;;;5001036;28;20034;-61
2022/03/02 04:00:20;;;;;;;24.40;11.38;;;5.70;99.90;;;;;;5001252;28;20045;-63
2022/03/02 04:02:46;;;;;;;21.20;9.23;;;5.70;99.90;;;;;;5000571;28;20038;-60
2022/03/02 04:05:12;;;;;;;26.05;10.32;;;5.70;99.90;;;;;;5001479;28;20041;-63
2022/03/02 04:07:38;;;;;;;21.80;9.55;;;5.80;99.90;;;;;;4997623;28;20394;-62
2022/03/02 04:10:06;;;;;;;23.85;11.15;;;5.80;99.90;;;;;;5000356;28;20048;-61
2022/03/02 04:12:31;;;;;;;22.85;10.85;;;5.70;99.90;;;;;;4999658;28;20041;-60
2022/03/02 04:14:57;;;;;;;26.52;10.63;;;5.70;99.90;;;;;;5001100;28;20394;-61
2022/03/02 04:17:23;;;;;;;20.98;9.48;;;5.60;99.90;;;;;;5000398;28;20048;-62
2022/03/02 04:19:49;;;;;;;21.75;10.35;;;5.60;99.90;;;;;;5000016;28;20033;-62
2022/03/02 04:22:15;;;;;;;24.98;10.93;;;5.50;99.90;;;;;;5005789;28;20033;-61
2022/03/02 04:24:41;;;;;;;23.88;9.93;;;5.50;99.90;;;;;;4999755;28;20113;-61
2022/03/02 04:27:07;;;;;;;24.00;11.25;;;5.50;99.90;;;;;;5002345;28;20105;-61
2022/03/02 04:29:33;;;;;;;22.80;11.05;;;5.50;99.90;;;;;;5002781;28;20037;-63
2022/03/02 04:31:58;;;;;;;22.38;9.90;;;5.50;99.90;;;;;;4999341;28;20030;-61
2022/03/02 04:34:24;;;;;;;23.35;10.73;;;5.50;99.90;;;;;;5001221;28;20038;-61
2022/03/02 04:36:49;;;;;;;24.52;10.38;;;5.50;99.90;;;;;;5000000;28;20041;-61
2022/03/02 04:39:15;;;;;;;23.17;10.23;;;5.50;99.90;;;;;;4999880;28;20058;-62
2022/03/02 04:41:41;;;;;;;23.65;10.55;;;5.60;99.90;;;;;;5001381;28;20037;-62
2022/03/02 04:44:07;;;;;;;26.13;10.65;;;5.50;99.90;;;;;;5001848;28;20034;-60
2022/03/02 04:46:32;;;;;;;23.13;10.27;;;5.50;99.90;;;;;;4994760;28;20121;-61
2022/03/02 04:49:10;;;;;;;22.10;10.02;;;5.50;99.90;;;;;;5001213;28;20401;-61
2022/03/02 04:51:37;;;;;;;22.80;10.75;;;5.50;99.90;;;;;;4996769;28;20038;-61
2022/03/02 04:54:03;;;;;;;21.88;9.60;;;5.50;99.90;;;;;;5001397;28;20050;-61
2022/03/02 04:56:28;;;;;;;29.10;10.52;;;5.50;99.90;;;;;;4997237;28;20065;-62
2022/03/02 04:58:54;;;;;;;27.58;11.43;;;5.60;99.90;;;;;;5000478;28;20033;-61
2022/03/02 05:01:20;;;;;;;26.13;11.75;;;5.60;99.90;;;;;;4999630;28;20042;-62
2022/03/02 05:03:45;;;;;;;23.35;9.63;;;5.60;99.90;;;;;;4999596;28;20030;-61
2022/03/02 05:06:11;;;;;;;20.60;9.20;;;5.60;99.90;;;;;;4998641;28;20026;-63
2022/03/02 05:08:37;;;;;;;30.25;11.18;;;5.60;99.90;;;;;;4998553;28;20029;-61
2022/03/02 05:11:03;;;;;;;26.73;11.80;;;5.70;99.90;;;;;;4997535;28;20065;-62
2022/03/02 05:13:29;;;;;;;23.20;10.65;;;5.70;99.90;;;;;;5001706;28;20034;-61
2022/03/02 05:15:55;;;;;;;24.15;9.85;;;5.80;99.90;;;;;;4997294;28;20156;-61
2022/03/02 05:18:20;;;;;;;24.90;10.60;;;5.80;99.90;;;;;;4999631;28;20195;-61
2022/03/02 05:20:46;;;;;;;26.10;10.35;;;5.70;99.90;;;;;;4999374;28;20026;-61
2022/03/02 05:23:12;;;;;;;23.65;9.77;;;5.70;99.90;;;;;;5000209;28;20038;-62
2022/03/02 05:25:37;;;;;;;24.48;9.68;;;5.70;99.90;;;;;;5002571;28;20057;-63
2022/03/02 05:28:03;;;;;;;21.15;9.35;;;5.60;99.90;;;;;;5004317;28;20116;-61
2022/03/02 05:30:29;;;;;;;25.05;9.77;;;5.70;99.90;;;;;;5006451;28;20378;-61
2022/03/02 05:32:54;;;;;;;25.40;10.63;;;5.70;99.90;;;;;;5006409;28;20073;-62
2022/03/02 05:35:20;;;;;;;22.45;9.93;;;5.70;99.90;;;;;;5002649;28;20034;-61
2022/03/02 05:37:46;;;;;;;20.67;9.48;;;5.70;99.90;;;;;;5001641;28;20038;-62
2022/03/02 05:40:16;;;;;;;24.83;9.75;;;5.70;99.90;;;;;;4999576;28;20394;-61
2022/03/02 05:42:42;;;;;;;19.90;9.27;;;5.70;99.90;;;;;;4997672;28;20058;-62
2022/03/02 05:45:09;;;;;;;21.73;10.68;;;5.80;99.90;;;;;;4998062;28;20058;-61
2022/03/02 05:47:36;;;;;;;21.65;10.45;;;5.80;99.90;;;;;;5001338;28;20046;-61
2022/03/02 05:50:03;;;;;;;25.02;9.65;;;5.70;99.90;;;;;;4997210;28;20054;-62
2022/03/02 05:52:28;;;;;;;26.65;9.10;;;5.80;99.90;;;;;;5001428;28;20030;-63
2022/03/02 05:54:54;;;;;;;22.23;10.60;;;5.70;99.90;;;;;;4998300;28;20035;-63
2022/03/02 05:57:20;;;;;;;25.05;10.15;;;5.70;99.90;;;;;;5004082;28;20045;-61
2022/03/02 05:59:45;;;;;;;24.13;10.80;;;5.70;99.90;;;;;;5003144;28;20045;-61
2022/03/02 06:02:11;;;;;;;21.35;9.27;;;5.60;99.90;;;;;;5002311;28;20545;-62
2022/03/02 06:04:36;;;;;;;18.30;9.05;;;5.70;99.90;;;;;;5005191;28;20122;-62
2022/03/02 06:07:02;;;;;;;22.35;10.95;;;5.60;99.90;;;;;;5004404;28;20651;-62
2022/03/02 06:09:28;;;;;;;25.65;10.73;;;5.60;99.90;;;;;;5001485;28;20100;-61
2022/03/02 06:11:53;;;;;;;23.98;10.18;;;5.60;99.90;;;;;;5003347;28;20489;-61
2022/03/02 06:14:19;;;;;;;20.90;9.90;;;5.60;99.90;;;;;;5002414;28;20038;-60
2022/03/02 06:16:45;;;;;;;24.20;9.15;;;5.60;99.90;;;;;;5001498;28;20027;-61
2022/03/02 06:19:12;;;;;;;24.27;10.60;;;5.60;99.90;;;;;;5001661;28;20037;-61
2022/03/02 06:21:40;;;;;;;21.42;9.05;;;5.60;99.90;;;;;;5001065;28;20389;-61
2022/03/02 06:24:06;;;;;;;22.80;9.43;;;5.60;99.90;;;;;;5001530;28;20038;-62
2022/03/02 06:26:32;;;;;;;21.33;9.63;;;5.60;99.90;;;;;;5003815;28;20116;-62
2022/03/02 06:28:58;;;;;;;25.42;9.90;;;5.60;99.90;;;;;;5000674;28;20157;-61
2022/03/02 06:31:24;;;;;;;27.23;10.88;;;5.60;99.90;;;;;;5004066;28;20029;-61
2022/03/02 06:33:49;;;;;;;27.73;9.93;;;5.60;99.90;;;;;;5001816;28;20034;-63
2022/03/02 06:36:15;;;;;;;27.40;11.40;;;5.60;99.90;;;;;;5003063;28;20034;-61
2022/03/02 06:38:41;;;;;;;21.08;9.20;;;5.60;99.90;;;;;;5003146;28;20374;-62
2022/03/02 06:41:26;;;;;;;19.60;8.55;;;5.60;99.90;;;;;;5001017;28;20046;-62
2022/03/02 06:44:13;;;;;;;21.98;8.88;;;5.70;99.90;;;;;;5004356;28;20436;-60
2022/03/02 06:47:10;;;;;;;22.52;10.40;;;5.70;99.90;;;;;;5000238;28;20038;-61
2022/03/02 06:49:57;;;;;;;23.77;10.70;;;5.80;99.90;;;;;;4999746;28;20088;-61
2022/03/02 06:52:32;;;;;;;22.40;9.38;;;5.70;99.90;;;;;;5000206;28;20083;-62
2022/03/02 06:55:01;;;;;;;27.80;10.15;;;5.80;99.90;;;;;;4997395;28;20031;-62
2022/03/02 06:57:28;;;;;;;20.58;9.20;;;5.80;99.90;;;;;;5004405;28;20034;-62
2022/03/02 07:00:01;;;;;;;28.02;9.95;;;5.80;99.90;;;;;;5000379;28;20062;-61
2022/03/02 07:02:39;;;;;;;22.60;9.43;;;5.70;99.90;;;;;;4997447;28;20034;-61
2022/03/02 07:05:07;;;;;;;19.67;8.35;;;5.70;99.90;;;;;;4999168;28;20034;-61
2022/03/02 07:07:34;;;;;;;22.33;8.45;;;5.70;99.90;;;;;;5005667;28;20440;-60
2022/03/02 07:10:00;;;;;;;25.17;9.45;;;5.80;99.90;;;;;;5001158;28;20027;-62
2022/03/02 07:12:27;;;;;;;26.08;10.00;;;5.80;99.90;;;;;;5005271;28;20026;-63
2022/03/02 07:14:54;;;;;;;24.95;10.13;;;5.70;99.90;;;;;;5001045;28;20061;-62
2022/03/02 07:17:22;;;;;;;19.77;9.40;;;5.70;99.90;;;;;;5022019;22;20072;-66
2022/03/02 07:19:48;;;;;;;24.35;9.85;;;5.70;99.90;;;;;;5008814;28;20037;-68
2022/03/02 07:22:19;;;;;;;30.25;8.30;;;5.70;99.90;;;;;;5010678;28;20030;-66
2022/03/02 07:24:52;;;;;;;25.25;11.43;;;5.70;99.90;;;;;;5010491;28;20030;-67
2022/03/02 07:27:18;;;;;;;23.90;8.48;;;5.70;99.90;;;;;;5009699;28;20038;-66
2022/03/02 07:29:48;;;;;;;22.60;9.18;;;5.80;99.90;;;;;;5011537;28;20092;-67
2022/03/02 07:32:16;;;;;;;27.42;10.05;;;5.80;99.90;;;;;;5004693;28;20213;-67
2022/03/02 07:34:42;;;;;;;20.27;8.60;;;5.90;99.90;;;;;;5011431;28;20026;-67
2022/03/02 07:37:09;;;;;;;23.80;8.77;;;5.90;99.90;;;;;;5010764;28;20053;-67
2022/03/02 07:39:36;;;;;;;21.75;8.55;;;6.00;99.90;;;;;;5009452;28;20038;-67
2022/03/02 07:42:03;;;;;;;25.67;10.10;;;6.10;99.90;;;;;;5006207;28;20041;-66
2022/03/02 07:44:29;;;;;;;19.85;8.60;;;6.20;99.90;;;;;;5011616;28;20064;-67
2022/03/02 07:46:54;;;;;;;17.80;9.10;;;6.20;99.90;;;;;;5011056;28;20034;-67
2022/03/02 07:49:20;;;;;;;27.52;10.05;;;6.40;99.90;;;;;;5011627;28;20052;-63
2022/03/02 07:51:50;;;;;;;23.98;9.57;;;6.50;99.90;;;;;;5009698;28;20058;-67
2022/03/02 07:54:18;;;;;;;21.83;8.98;;;6.60;99.90;;;;;;5011465;28;20034;-67
2022/03/02 07:56:44;;;;;;;18.80;8.52;;;6.90;99.90;;;;;;5010709;28;20046;-67
2022/03/02 07:59:10;;;;;;;21.90;9.15;;;7.30;99.90;;;;;;5010700;28;20026;-66
2022/03/02 08:01:38;;;;;;;19.38;8.15;;;7.50;99.90;;;;;;5009380;28;20036;-67
2022/03/02 08:04:09;;;;;;;21.02;7.70;;;7.60;99.90;;;;;;5010199;28;20113;-67
2022/03/02 08:06:36;;;;;;;15.10;7.60;;;7.80;99.90;;;;;;5010534;28;20042;-64
2022/03/02 08:09:05;;;;;;;23.48;9.00;;;8.20;99.90;;;;;;5009477;28;20030;-65
2022/03/02 08:11:33;;;;;;;20.80;8.95;;;8.30;99.90;;;;;;5007795;28;20038;-65
2022/03/02 08:14:00;;;;;;;20.40;8.63;;;8.30;99.90;;;;;;5008478;28;20029;-67
2022/03/02 08:16:30;;;;;;;17.80;7.95;;;8.30;99.90;;;;;;5010073;28;20041;-67
2022/03/02 08:18:57;;;;;;;16.45;7.72;;;8.30;99.90;;;;;;5009760;28;20030;-67
2022/03/02 08:21:25;;;;;;;21.02;8.20;;;8.40;99.90;;;;;;5010528;28;20073;-67
2022/03/02 08:23:55;;;;;;;17.08;7.28;;;8.50;99.90;;;;;;5006613;28;20030;-67
2022/03/02 08:26:23;;;;;;;17.63;7.57;;;8.50;99.90;;;;;;5002698;28;20061;-67
2022/03/02 08:28:55;;;;;;;15.35;7.30;;;8.50;99.90;;;;;;5009713;28;20038;-67
2022/03/02 08:31:25;;;;;;;16.52;7.28;;;8.40;99.90;;;;;;5004032;28;20046;-62
2022/03/02 08:33:51;;;;;;;19.13;8.07;;;8.50;99.60;;;;;;5005373;28;20033;-67
2022/03/02 08:36:21;;;;;;;22.73;8.57;;;8.40;99.40;;;;;;5009411;28;20037;-66
2022/03/02 08:38:49;;;;;;;20.17;8.27;;;8.40;99.40;;;;;;5010274;28;20062;-67
2022/03/02 08:41:17;;;;;;;22.00;8.23;;;8.40;98.50;;;;;;5009814;28;20914;-65
2022/03/02 08:43:45;;;;;;;17.15;8.05;;;8.30;97.70;;;;;;5006809;28;20037;-65
2022/03/02 08:46:10;;;;;;;18.23;8.07;;;8.20;98.40;;;;;;5009347;28;20056;-66
2022/03/02 08:48:36;;;;;;;16.98;7.32;;;8.20;98.20;;;;;;5010850;28;20478;-66
2022/03/02 08:51:03;;;;;;;17.50;7.30;;;8.10;97.40;;;;;;5011383;28;20370;-67
2022/03/02 08:53:31;;;;;;;19.33;7.25;;;7.90;98.30;;;;;;5010710;28;20093;-67
2022/03/02 08:55:59;;;;;;;17.85;7.55;;;7.80;98.20;;;;;;5008895;28;20080;-66
2022/03/02 08:58:27;;;;;;;22.02;8.05;;;7.70;98.60;;;;;;5008593;28;20808;-67
2022/03/02 09:00:53;;;;;;;16.75;7.18;;;7.70;98.20;;;;;;5007494;28;20045;-67
2022/03/02 09:03:21;;;;;;;18.90;7.13;;;7.70;98.20;;;;;;5008900;28;20109;-67
2022/03/02 09:05:49;;;;;;;17.75;7.15;;;7.50;99.10;;;;;;5009002;28;20112;-67
2022/03/02 09:08:15;;;;;;;20.05;7.25;;;7.60;98.80;;;;;;5008143;28;20048;-66
2022/03/02 09:10:42;;;;;;;18.05;7.25;;;7.50;99.20;;;;;;5000513;28;20108;-65
2022/03/02 09:13:09;;;;;;;16.77;6.68;;;7.50;99.40;;;;;;4998815;28;20061;-67
2022/03/02 09:15:37;;;;;;;20.00;7.25;;;7.60;97.80;;;;;;5005178;28;20056;-66
2022/03/02 09:18:06;;;;;;;17.23;6.57;;;7.60;97.10;;;;;;5006348;28;20084;-67
2022/03/02 09:20:31;;;;;;;20.52;6.75;;;7.70;97.20;;;;;;5005526;28;20436;-66
2022/03/02 09:23:01;;;;;;;20.90;7.38;;;7.70;97.90;;;;;;5019108;28;20037;-66
2022/03/02 09:25:30;;;;;;;11.15;4.82;;;7.80;98.10;;;;;;5004018;28;20060;-67
2022/03/02 09:27:56;;;;;;;17.58;6.85;;;7.90;98.50;;;;;;5003724;28;20030;-65
2022/03/02 09:30:22;;;;;;;20.35;8.05;;;8.00;98.70;;;;;;5008970;28;20041;-65
2022/03/02 09:32:52;;;;;;;14.60;7.28;;;8.20;98.90;;;;;;5010586;28;20058;-68
2022/03/02 09:35:20;;;;;;;20.50;7.63;;;8.40;98.80;;;;;;5006935;28;20053;-68
2022/03/02 09:37:49;;;;;;;21.60;7.53;;;8.50;98.40;;;;;;5008141;28;20035;-67
2022/03/02 09:40:33;;;;;;;23.10;8.73;;;8.60;98.60;;;;;;5010026;28;20434;-66
2022/03/02 09:43:05;;;;;;;16.58;7.57;;;8.70;98.20;;;;;;5006689;28;20113;-67
2022/03/02 09:45:32;;;;;;;19.27;8.18;;;8.70;97.80;;;;;;5007481;28;20485;-64
2022/03/02 09:48:00;;;;;;;17.55;7.97;;;8.80;97.70;;;;;;5006482;28;20116;-64
2022/03/02 09:50:31;;;;;;;19.55;7.93;;;8.80;96.90;;;;;;5009519;28;20046;-68
2022/03/02 09:53:08;;;;;;;18.00;7.35;;;8.90;97.10;;;;;;5008495;28;20394;-67
2022/03/02 09:55:35;;;;;;;26.38;7.88;;;8.90;96.80;;;;;;5005837;28;20038;-65
2022/03/02 09:58:01;;;;;;;20.08;7.78;;;9.00;97.20;;;;;;5008913;28;20389;-67
2022/03/02 10:00:29;;;;;;;21.33;7.60;;;9.00;96.90;;;;;;5009662;28;20038;-68
2022/03/02 10:02:57;;;;;;;17.92;7.85;;;9.10;96.30;;;;;;5008453;28;20056;-67
2022/03/02 10:05:31;;;;;;;21.67;7.53;;;9.10;95.60;;;;;;5008241;28;20508;-67
2022/03/02 10:08:05;;;;;;;18.33;7.50;;;9.10;96.00;;;;;;5024219;28;20033;-67
2022/03/02 10:10:33;;;;;;;21.92;7.60;;;9.10;95.90;;;;;;5011011;28;20533;-67
2022/03/02 10:13:01;;;;;;;16.98;7.38;;;9.20;96.00;;;;;;5010807;28;20042;-67
2022/03/02 10:15:28;;;;;;;17.88;6.95;;;9.20;96.50;;;;;;5010460;28;20494;-67
2022/03/02 10:17:58;;;;;;;22.00;7.28;;;9.30;96.50;;;;;;5008856;28;20046;-68
2022/03/02 10:20:30;;;;;;;18.70;7.68;;;9.30;96.10;;;;;;5011435;28;20096;-66
2022/03/02 10:23:34;;;;;;;17.13;7.32;;;9.40;95.20;;;;;;5009669;28;20511;-67
2022/03/02 10:26:10;;;;;;;18.23;7.82;;;9.50;94.60;;;;;;5009127;28;20030;-67
2022/03/02 10:29:03;;;;;;;21.13;8.05;;;9.50;95.60;;;;;;5009029;28;20121;-67
2022/03/02 10:31:53;;;;;;;17.17;7.13;;;9.50;95.40;;;;;;5000327;28;20049;-67
2022/03/02 10:34:28;;;;;;;15.70;7.50;;;9.60;93.70;;;;;;5009015;28;20042;-66
2022/03/02 10:37:13;;;;;;;16.65;6.93;;;9.60;93.60;;;;;;5009782;28;20053;-65
2022/03/02 10:39:49;;;;;;;21.42;7.18;;;9.70;93.70;;;;;;5009604;28;20101;-65
2022/03/02 10:42:43;;;;;;;17.88;8.10;;;9.70;93.80;;;;;;5007569;28;20065;-67
2022/03/02 10:45:24;;;;;;;17.17;6.57;;;9.70;93.60;;;;;;5001396;28;20037;-67
2022/03/02 10:48:10;;;;;;;19.83;7.88;;;9.70;93.20;;;;;;5009681;28;20040;-67
2022/03/02 10:50:39;;;;;;;18.90;7.20;;;9.70;92.90;;;;;;5007387;28;20111;-67
2022/03/02 10:53:07;;;;;;;17.10;6.68;;;9.70;92.70;;;;;;5005947;28;20367;-68
2022/03/02 10:55:35;;;;;;;19.27;7.32;;;9.70;93.30;;;;;;5023254;28;20613;-68
2022/03/02 10:58:03;;;;;;;14.93;6.50;;;9.80;93.00;;;;;;5025976;28;20042;-66
2022/03/02 11:00:28;;;;;;;24.52;7.47;;;9.80;92.50;;;;;;5009773;28;20412;-67
2022/03/02 11:02:59;;;;;;;16.42;6.88;;;9.80;92.70;;;;;;5007410;28;20030;-66
2022/03/02 11:05:28;;;;;;;14.70;6.28;;;9.90;93.30;;;;;;5008838;28;20490;-68
2022/03/02 11:07:55;;;;;;;18.95;7.45;;;9.90;92.80;;;;;;5009858;28;20504;-66
2022/03/02 11:10:30;;;;;;;17.38;7.70;;;10.00;93.00;;;;;;5007833;28;20054;-68
2022/03/02 11:12:56;;;;;;;16.75;6.70;;;10.10;91.90;;;;;;5009134;28;20124;-68
2022/03/02 11:15:22;;;;;;;13.80;6.72;;;10.10;92.80;;;;;;5009432;28;20073;-68
2022/03/02 11:17:58;;;;;;;19.27;7.28;;;10.10;91.70;;;;;;5008096;28;20041;-67
2022/03/02 11:20:26;;;;;;;17.65;7.40;;;10.10;91.70;;;;;;5006359;28;20029;-67
2022/03/02 11:22:58;;;;;;;17.48;7.72;;;10.20;92.30;;;;;;5009944;28;20034;-67
2022/03/02 11:25:52;;;;;;;18.85;7.53;;;10.20;92.50;;;;;;5007215;28;20129;-68
2022/03/02 11:28:25;;;;;;;19.08;7.30;;;10.20;91.90;;;;;;5007506;28;20046;-68
2022/03/02 11:31:00;;;;;;;13.70;7.57;;;10.30;90.40;;;;;;5021870;28;20045;-67
2022/03/02 11:33:28;;;;;;;16.98;6.72;;;10.30;87.90;;;;;;5008139;28;20057;-67
2022/03/02 11:35:59;;;;;;;15.80;6.70;;;10.30;89.80;;;;;;5007593;28;20042;-67
2022/03/02 11:38:29;;;;;;;14.60;6.60;;;10.30;89.00;;;;;;5008308;28;20038;-67
2022/03/02 11:40:55;;;;;;;13.07;6.25;;;10.30;90.50;;;;;;5005998;28;20046;-67
2022/03/02 11:43:28;;;;;;;16.77;6.65;;;10.30;91.20;;;;;;5005834;28;20038;-67
2022/03/02 11:45:58;;;;;;;17.58;7.53;;;10.30;87.80;;;;;;5007135;28;20033;-69
2022/03/02 11:48:29;;;;;;;17.33;6.28;;;10.30;90.40;;;;;;5007926;28;20482;-67
2022/03/02 11:51:13;;;;;;;18.35;7.20;;;10.40;90.20;;;;;;5008761;28;20033;-65
2022/03/02 11:53:45;;;;;;;16.30;6.63;;;10.40;89.50;;;;;;5003580;28;20409;-66
2022/03/02 11:56:18;;;;;;;14.75;6.75;;;10.50;89.70;;;;;;5021718;28;20136;-67
2022/03/02 11:58:58;;;;;;;13.85;6.18;;;10.50;90.10;;;;;;5004738;28;20129;-65
2022/03/02 12:01:26;;;;;;;15.25;7.10;;;10.60;90.10;;;;;;5007033;28;20056;-67
2022/03/02 12:04:01;;;;;;;21.90;6.40;;;10.60;85.80;;;;;;5003995;28;20509;-68
2022/03/02 12:06:28;;;;;;;15.50;6.72;;;10.60;86.50;;;;;;5008254;28;20052;-67
2022/03/02 12:08:55;;;;;;;13.30;6.03;;;10.70;85.20;;;;;;5005949;28;20105;-70
2022/03/02 12:11:35;;;;;;;16.88;7.43;;;10.70;85.30;;;;;;5006606;28;20041;-66
2022/03/02 12:14:06;;;;;;;13.47;5.57;;;10.70;84.20;;;;;;5008644;28;20107;-66
2022/03/02 12:16:51;;;;;;;17.85;6.95;;;10.70;85.00;;;;;;5006656;28;20041;-68
2022/03/02 12:19:25;;;;;;;13.48;5.72;;;10.70;82.80;;;;;;5001616;28;20030;-68
2022/03/02 12:22:01;;;;;;;15.27;6.47;;;10.80;80.50;;;;;;5003536;28;20064;-67
2022/03/02 12:24:30;;;;;;;15.10;6.35;;;10.80;83.30;;;;;;5007435;28;21570;-66
2022/03/02 12:27:04;;;;;;;14.88;6.35;;;10.80;83.50;;;;;;5006378;28;20109;-67
2022/03/02 12:29:31;;;;;;;12.15;5.72;;;10.90;81.20;;;;;;5007344;28;20034;-66
2022/03/02 12:32:10;;;;;;;15.77;5.53;;;10.90;78.00;;;;;;5007221;28;20044;-67
2022/03/02 12:34:39;;;;;;;13.25;5.00;;;11.00;77.10;;;;;;5007059;28;20125;-64
2022/03/02 12:37:05;;;;;;;14.98;6.80;;;11.00;76.40;;;;;;5007157;28;20406;-68
2022/03/02 12:39:32;;;;;;;17.75;6.13;;;11.00;77.30;;;;;;5007578;28;20026;-67
2022/03/02 12:42:04;;;;;;;13.18;5.10;;;11.00;77.10;;;;;;5021121;28;20033;-67
2022/03/02 12:44:33;;;;;;;14.77;5.32;;;11.10;74.70;;;;;;5005034;28;20034;-67
2022/03/02 12:47:03;;;;;;;13.85;5.43;;;11.10;75.30;;;;;;5005324;28;20037;-66